Terminal Aerodrome Forecast
Issued by NWS

Home | Current Version | Previous Version | Text Only | Print | Product List | Glossary On
Versions: 1 2 3 4 5 6 7 8 9 10 11 12 13 14 15 16 17 18 19 20 21 22 23 24 25 26 27 28 29 30 31
017
FTAK31 PAFA 241138
TAFAMC
TAF
PAMC 241138Z 2412/2512 VRB04KT P6SM VCSH OVC045
     FM250200 23006KT 5SM -SHRA BR SCT025 BKN040 OVC090=

USA.gov is the U.S. government's official web portal to all federal, state and local government web resources and services.